createdAt,value
2022-12-22T00:04:01.841Z,3.88
2022-12-22T00:09:33.530Z,4.78
2022-12-22T00:12:18.752Z,4.55
2022-12-22T00:15:04.738Z,4.10
2022-12-22T00:17:50.108Z,5.20
2022-12-22T00:23:23.208Z,2.58
2022-12-22T00:26:09.829Z,3.25
2022-12-22T00:28:55.853Z,3.60
2022-12-22T00:31:41.731Z,3.28
2022-12-22T00:34:33.120Z,2.80
2022-12-22T00:37:18.614Z,2.97
2022-12-22T00:40:03.958Z,2.65
2022-12-22T00:42:50.848Z,2.63
2022-12-22T00:45:36.327Z,2.63
2022-12-22T00:48:23.031Z,2.80
2022-12-22T00:51:08.742Z,2.13
2022-12-22T00:53:54.314Z,2.08
2022-12-22T00:56:39.494Z,4.22
2022-12-22T00:59:28.445Z,2.97
2022-12-22T01:02:13.797Z,3.05
2022-12-22T01:04:59.236Z,2.13
2022-12-22T01:10:31.820Z,2.90
2022-12-22T01:13:17.208Z,1.80
2022-12-22T01:18:49.228Z,1.67
2022-12-22T01:21:35.481Z,1.95
2022-12-22T01:24:20.870Z,4.07
2022-12-22T01:29:51.744Z,3.00
2022-12-22T01:35:24.494Z,2.05
2022-12-22T01:38:09.879Z,6.78
2022-12-22T01:43:44.424Z,3.03
2022-12-22T01:46:41.794Z,5.65
2022-12-22T01:49:30.829Z,2.88
2022-12-22T01:52:16.240Z,3.13
2022-12-22T01:57:48.763Z,1.92
2022-12-22T02:00:34.378Z,2.10
2022-12-22T02:03:19.990Z,3.45
2022-12-22T02:06:16.216Z,2.15
2022-12-22T02:09:14.383Z,1.40
2022-12-22T02:12:08.265Z,1.35
2022-12-22T02:15:04.645Z,1.88
2022-12-22T02:17:56.905Z,3.15
2022-12-22T02:21:02.331Z,2.60
2022-12-22T02:24:12.092Z,3.83
2022-12-22T02:27:04.256Z,2.00
2022-12-22T02:29:53.992Z,1.60
2022-12-22T02:32:42.063Z,3.78
2022-12-22T02:35:30.662Z,1.75
2022-12-22T02:38:25.857Z,1.38
2022-12-22T02:41:24.981Z,2.28
2022-12-22T02:44:32.295Z,1.73
2022-12-22T02:47:22.112Z,1.50
2022-12-22T02:50:12.756Z,2.38
2022-12-22T02:53:01.422Z,2.35
2022-12-22T02:55:47.961Z,2.20
2022-12-22T02:58:34.317Z,2.72
2022-12-22T03:01:22.810Z,1.85
2022-12-22T03:04:08.270Z,2.25
2022-12-22T03:09:38.591Z,1.30
2022-12-22T03:12:24.067Z,1.38
2022-12-22T03:17:55.530Z,1.10
2022-12-22T03:20:40.756Z,1.55
2022-12-22T03:23:26.247Z,1.52
2022-12-22T03:25:54.448Z,1.30
2022-12-22T03:28:23.579Z,1.60
2022-12-22T03:30:56.531Z,2.97
2022-12-22T03:33:26.138Z,2.17
2022-12-22T03:35:53.882Z,1.48
2022-12-22T03:38:21.561Z,1.17
2022-12-22T03:40:49.424Z,1.52
2022-12-22T03:43:35.841Z,1.52
2022-12-22T03:46:21.544Z,3.67
2022-12-22T03:49:09.883Z,1.40
2022-12-22T03:51:39.734Z,1.50
2022-12-22T03:54:07.831Z,1.73
2022-12-22T03:56:35.849Z,0.98
2022-12-22T03:59:03.671Z,2.00
2022-12-22T04:01:31.828Z,1.63
2022-12-22T04:04:01.088Z,1.58
2022-12-22T04:06:28.910Z,0.80
2022-12-22T04:08:56.894Z,0.88
2022-12-22T04:11:42.047Z,0.70
2022-12-22T04:14:09.790Z,1.20
2022-12-22T04:16:37.759Z,1.00
2022-12-22T04:19:07.984Z,1.20
2022-12-22T04:21:35.790Z,5.47
2022-12-22T04:24:04.175Z,1.10
2022-12-22T04:26:32.092Z,2.10
2022-12-22T04:28:59.991Z,1.95
2022-12-22T04:31:27.842Z,2.08
2022-12-22T04:33:55.644Z,1.00
2022-12-22T04:36:24.766Z,1.30
2022-12-22T04:38:52.522Z,2.22
2022-12-22T04:41:20.228Z,1.15
2022-12-22T04:43:47.890Z,0.88
2022-12-22T04:46:15.818Z,1.23
2022-12-22T04:48:43.717Z,1.38
2022-12-22T04:51:11.598Z,1.35
2022-12-22T04:53:40.691Z,2.22
2022-12-22T04:56:09.521Z,1.73
2022-12-22T04:58:37.895Z,4.35
2022-12-22T05:01:10.963Z,3.90
2022-12-22T05:03:38.924Z,0.80
2022-12-22T05:06:07.382Z,1.42
2022-12-22T05:08:35.426Z,2.13
2022-12-22T05:11:04.699Z,3.35
2022-12-22T05:13:33.053Z,1.40
2022-12-22T05:16:05.679Z,3.95
2022-12-22T05:18:34.370Z,1.63
2022-12-22T05:21:05.438Z,1.52
2022-12-22T05:23:33.204Z,2.00
2022-12-22T05:26:00.896Z,1.17
2022-12-22T05:28:30.143Z,1.40
2022-12-22T05:30:57.862Z,1.30
2022-12-22T05:33:25.629Z,1.00
2022-12-22T05:35:54.072Z,2.55
2022-12-22T05:38:21.800Z,1.33
2022-12-22T05:40:49.663Z,1.52
2022-12-22T05:43:17.808Z,6.50
2022-12-22T05:45:47.544Z,1.50
2022-12-22T05:48:18.893Z,2.00
2022-12-22T05:50:50.362Z,1.45
2022-12-22T05:53:18.066Z,1.38
2022-12-22T05:55:45.856Z,2.55
2022-12-22T05:58:13.552Z,2.75
2022-12-22T06:00:41.522Z,1.45
2022-12-22T06:03:10.791Z,1.67
2022-12-22T06:05:38.627Z,3.83
2022-12-22T06:08:06.473Z,1.90
2022-12-22T06:10:34.214Z,2.70
2022-12-22T06:13:02.468Z,2.58
2022-12-22T06:15:30.780Z,1.65
2022-12-22T06:17:58.451Z,2.72
2022-12-22T06:20:27.553Z,0.80
2022-12-22T06:22:55.358Z,1.27
2022-12-22T06:25:23.089Z,1.33
2022-12-22T06:27:50.910Z,1.95
2022-12-22T06:30:18.687Z,1.80
2022-12-22T06:32:46.415Z,2.20
2022-12-22T06:35:14.805Z,0.98
2022-12-22T06:37:44.191Z,1.17
2022-12-22T06:40:12.522Z,3.28
2022-12-22T06:43:02.175Z,5.28
2022-12-22T06:45:33.746Z,2.83
2022-12-22T06:48:01.492Z,4.65
2022-12-22T06:50:29.603Z,3.53
2022-12-22T06:52:58.681Z,1.95
2022-12-22T06:55:26.841Z,1.92
2022-12-22T06:57:54.552Z,1.95
2022-12-22T07:00:22.917Z,3.10
2022-12-22T07:02:51.171Z,1.98
2022-12-22T07:05:19.013Z,6.43
2022-12-22T07:07:46.827Z,3.20
2022-12-22T07:10:16.032Z,3.25
2022-12-22T07:12:44.017Z,3.13
2022-12-22T07:15:12.072Z,5.53
2022-12-22T07:17:41.501Z,3.38
2022-12-22T07:20:10.402Z,2.63
2022-12-22T07:22:38.114Z,3.22
2022-12-22T07:25:06.431Z,2.92
2022-12-22T07:27:35.639Z,3.95
2022-12-22T07:30:03.335Z,4.63
2022-12-22T07:32:31.116Z,2.97
2022-12-22T07:35:03.212Z,2.63
2022-12-22T07:37:32.833Z,1.10
2022-12-22T07:40:00.575Z,1.73
2022-12-22T07:42:45.298Z,3.38
2022-12-22T07:45:14.998Z,5.88
2022-12-22T07:47:43.197Z,4.88
2022-12-22T07:50:28.532Z,2.40
2022-12-22T07:52:57.163Z,6.97
2022-12-22T07:55:26.203Z,4.72
2022-12-22T07:57:54.693Z,6.32
2022-12-22T08:00:24.925Z,2.25
2022-12-22T08:02:54.601Z,2.33
2022-12-22T08:05:23.153Z,3.38
2022-12-22T08:07:52.210Z,2.03
2022-12-22T08:10:20.601Z,4.43
2022-12-22T08:12:48.518Z,5.32
2022-12-22T08:15:16.405Z,2.92
2022-12-22T08:17:45.500Z,6.55
2022-12-22T08:20:13.478Z,4.40
2022-12-22T08:22:41.198Z,5.18
2022-12-22T08:25:09.791Z,6.30
2022-12-22T08:27:44.057Z,5.60
2022-12-22T08:30:13.543Z,4.05
2022-12-22T08:32:42.613Z,6.25
2022-12-22T08:35:12.093Z,4.95
2022-12-22T08:37:43.644Z,6.53
2022-12-22T08:40:15.408Z,10.90
2022-12-22T08:42:43.160Z,9.02
2022-12-22T08:45:11.549Z,7.80
2022-12-22T08:47:39.340Z,10.50
2022-12-22T08:50:08.600Z,9.98
2022-12-22T08:52:37.749Z,9.27
2022-12-22T08:55:06.001Z,8.85
2022-12-22T08:57:33.713Z,10.05
2022-12-22T09:00:01.571Z,9.93
2022-12-22T09:02:29.507Z,9.18
2022-12-22T09:04:57.358Z,12.52
2022-12-22T09:07:25.072Z,14.10
2022-12-22T09:09:54.589Z,14.75
2022-12-22T09:12:22.341Z,14.10
2022-12-22T09:14:50.107Z,13.18
2022-12-22T09:17:17.881Z,12.82
2022-12-22T09:19:45.917Z,13.27
2022-12-22T09:22:13.708Z,11.35
2022-12-22T09:24:41.464Z,13.32
2022-12-22T09:27:10.701Z,12.18
2022-12-22T09:29:38.472Z,13.30
2022-12-22T09:32:06.890Z,16.30
2022-12-22T09:34:35.101Z,13.52
2022-12-22T09:37:02.836Z,15.85
2022-12-22T09:39:30.761Z,14.82
2022-12-22T09:41:59.591Z,14.85
2022-12-22T09:44:32.821Z,16.00
2022-12-22T09:47:02.659Z,15.75
2022-12-22T09:49:30.776Z,20.38
2022-12-22T09:52:00.719Z,17.90
2022-12-22T09:54:30.218Z,18.42
2022-12-22T09:56:58.386Z,20.05
2022-12-22T09:59:30.130Z,23.85
2022-12-22T10:02:07.162Z,24.67
2022-12-22T10:04:50.200Z,26.30
2022-12-22T10:07:26.537Z,22.67
2022-12-22T10:09:54.259Z,19.35
2022-12-22T10:12:26.247Z,23.60
2022-12-22T10:14:56.159Z,21.70
2022-12-22T10:17:27.969Z,22.10
2022-12-22T10:20:09.015Z,21.95
2022-12-22T10:22:45.987Z,22.45
2022-12-22T10:25:39.470Z,22.50
2022-12-22T10:28:20.633Z,19.77
2022-12-22T10:30:49.862Z,25.67
2022-12-22T10:33:19.800Z,23.13
2022-12-22T10:35:51.079Z,19.58
2022-12-22T10:38:23.678Z,20.83
2022-12-22T10:41:01.895Z,17.60
2022-12-22T10:43:32.955Z,17.70
2022-12-22T10:46:04.316Z,17.20
2022-12-22T10:48:34.708Z,16.27
2022-12-22T10:51:05.277Z,17.50
2022-12-22T10:53:46.752Z,16.27
2022-12-22T10:56:22.594Z,17.98
2022-12-22T10:58:53.643Z,16.95
2022-12-22T11:01:28.787Z,17.92
2022-12-22T11:03:56.813Z,17.90
2022-12-22T11:06:24.919Z,21.25
2022-12-22T11:08:52.662Z,18.75
2022-12-22T11:11:37.970Z,17.63
2022-12-22T11:16:51.088Z,17.00
2022-12-22T11:19:50.654Z,18.67
2022-12-22T11:22:32.439Z,18.98
2022-12-22T11:25:16.114Z,18.73
2022-12-22T11:27:52.098Z,18.65
2022-12-22T11:30:21.748Z,21.05
2022-12-22T11:33:04.692Z,17.25
2022-12-22T11:35:45.157Z,18.20
2022-12-22T11:38:22.294Z,16.35
2022-12-22T11:40:56.325Z,18.95
2022-12-22T11:43:27.471Z,16.25
2022-12-22T11:46:14.934Z,14.88
2022-12-22T11:49:03.326Z,16.38
2022-12-22T11:51:48.892Z,13.80
2022-12-22T11:54:37.524Z,17.27
2022-12-22T11:57:16.499Z,16.20
2022-12-22T11:59:52.883Z,15.35
2022-12-22T12:02:58.172Z,15.80
2022-12-22T12:05:57.493Z,16.30
2022-12-22T12:08:33.995Z,17.38
2022-12-22T12:11:18.000Z,14.77
2022-12-22T12:13:55.124Z,15.07
2022-12-22T12:16:35.537Z,13.77
2022-12-22T12:19:30.516Z,15.35
2022-12-22T12:24:44.803Z,13.48
2022-12-22T12:27:25.325Z,13.88
2022-12-22T12:30:36.505Z,12.15
2022-12-22T12:32:56.285Z,13.48
2022-12-22T12:35:44.226Z,14.75
2022-12-22T12:38:39.840Z,12.93
2022-12-22T12:41:15.616Z,14.67
2022-12-22T12:43:44.648Z,16.67
2022-12-22T12:46:50.091Z,14.52
2022-12-22T12:49:56.362Z,16.30
2022-12-22T12:53:06.000Z,12.75
2022-12-22T12:55:52.581Z,13.20
2022-12-22T12:58:48.975Z,13.63
2022-12-22T13:01:55.925Z,16.55
2022-12-22T13:05:12.968Z,13.25
2022-12-22T13:08:10.644Z,12.07
2022-12-22T13:10:43.018Z,15.60
2022-12-22T13:13:29.808Z,11.85
2022-12-22T13:16:24.005Z,14.38
2022-12-22T13:18:52.955Z,13.63
2022-12-22T13:21:55.358Z,13.70
2022-12-22T13:24:25.759Z,15.40
2022-12-22T13:26:56.929Z,11.43
2022-12-22T13:29:30.595Z,10.73
2022-12-22T13:32:02.668Z,13.10
2022-12-22T13:35:11.805Z,11.73
2022-12-22T13:37:31.337Z,11.43
2022-12-22T13:40:17.312Z,10.80
2022-12-22T13:42:48.893Z,13.18
2022-12-22T13:45:24.660Z,11.25
2022-12-22T13:50:23.653Z,12.50
2022-12-22T13:52:52.447Z,12.45
2022-12-22T13:55:26.120Z,12.68
2022-12-22T13:57:58.913Z,14.45
2022-12-22T14:00:29.564Z,11.15
2022-12-22T14:02:57.494Z,11.13
2022-12-22T14:05:31.713Z,10.95
2022-12-22T14:08:04.860Z,10.90
2022-12-22T14:10:40.672Z,10.25
2022-12-22T14:13:16.376Z,16.08
2022-12-22T14:18:16.581Z,11.13
2022-12-22T14:20:47.786Z,13.20
2022-12-22T14:23:20.146Z,12.90
2022-12-22T14:25:50.319Z,11.82
2022-12-22T14:28:23.573Z,13.98
2022-12-22T14:30:53.916Z,13.70
2022-12-22T14:33:30.174Z,12.70
2022-12-22T14:36:23.765Z,12.25
2022-12-22T14:38:53.436Z,11.90
2022-12-22T14:41:46.077Z,12.85
2022-12-22T14:44:21.748Z,13.18
2022-12-22T14:49:30.752Z,16.05
2022-12-22T14:52:04.287Z,21.38
2022-12-22T14:54:32.112Z,33.92
2022-12-22T14:57:08.469Z,28.63
2022-12-22T14:59:42.419Z,23.40
2022-12-22T15:02:23.001Z,21.88
2022-12-22T15:05:06.825Z,18.08
2022-12-22T15:10:39.173Z,13.95
2022-12-22T15:13:12.435Z,14.43
2022-12-22T15:15:41.607Z,17.35
2022-12-22T15:18:14.384Z,14.50
2022-12-22T15:20:42.337Z,16.52
2022-12-22T15:23:14.317Z,13.85
2022-12-22T15:25:42.074Z,13.15
2022-12-22T15:28:10.058Z,17.15
2022-12-22T15:30:38.453Z,18.13
2022-12-22T15:33:12.753Z,15.88
2022-12-22T15:35:41.194Z,18.90
2022-12-22T15:38:13.605Z,16.52
2022-12-22T15:40:41.670Z,15.73
2022-12-22T15:43:22.324Z,17.10
2022-12-22T15:45:58.026Z,16.77
2022-12-22T15:48:31.154Z,18.13
2022-12-22T15:50:59.522Z,18.38
2022-12-22T15:53:27.795Z,16.30
2022-12-22T15:55:58.373Z,17.30
2022-12-22T15:58:29.031Z,16.90
2022-12-22T16:00:56.863Z,22.20
2022-12-22T16:03:24.834Z,21.38
2022-12-22T16:05:54.470Z,22.30
2022-12-22T16:08:28.236Z,20.33
2022-12-22T16:10:56.104Z,32.95
2022-12-22T16:13:27.001Z,28.63
2022-12-22T16:15:55.163Z,23.17
2022-12-22T16:18:22.968Z,25.02
2022-12-22T16:20:51.717Z,49.63
2022-12-22T16:23:23.536Z,41.53
2022-12-22T16:26:00.581Z,43.78
2022-12-22T16:28:29.932Z,66.72
2022-12-22T16:30:58.096Z,69.93
2022-12-22T16:33:26.000Z,19.92
2022-12-22T16:35:54.149Z,12.30
2022-12-22T16:38:23.238Z,13.05
2022-12-22T16:40:54.137Z,12.25
2022-12-22T16:46:15.803Z,21.90
2022-12-22T16:48:46.607Z,19.10
2022-12-22T16:51:18.494Z,21.73
2022-12-22T16:53:47.688Z,14.75
2022-12-22T16:56:18.902Z,11.40
2022-12-22T16:58:46.975Z,10.68
2022-12-22T17:01:31.078Z,8.80
2022-12-22T17:04:03.212Z,5.05
2022-12-22T17:06:31.223Z,4.47
2022-12-22T17:09:00.478Z,3.13
2022-12-22T17:11:31.569Z,2.30
2022-12-22T17:14:05.513Z,1.73
2022-12-22T17:16:33.439Z,1.55
2022-12-22T17:19:01.422Z,2.28
2022-12-22T17:21:29.749Z,3.30
2022-12-22T17:24:03.929Z,1.83
2022-12-22T17:26:34.423Z,5.65
2022-12-22T17:29:02.525Z,3.55
2022-12-22T17:31:30.325Z,2.75
2022-12-22T17:33:58.378Z,3.20
2022-12-22T17:36:33.036Z,1.98
2022-12-22T17:39:02.838Z,2.10
2022-12-22T17:41:30.964Z,4.68
2022-12-22T17:43:58.729Z,7.68
2022-12-22T17:46:26.603Z,7.57
2022-12-22T17:48:54.356Z,5.95
2022-12-22T17:51:25.604Z,6.88
2022-12-22T17:53:55.140Z,5.93
2022-12-22T17:56:26.599Z,10.38
2022-12-22T17:58:54.903Z,11.18
2022-12-22T18:01:25.586Z,9.43
2022-12-22T18:03:53.683Z,8.65
2022-12-22T18:06:23.951Z,9.85
2022-12-22T18:08:53.884Z,13.90
2022-12-22T18:11:22.251Z,17.95
2022-12-22T18:13:52.684Z,11.70
2022-12-22T18:16:22.919Z,11.90
2022-12-22T18:18:50.851Z,11.93
2022-12-22T18:21:21.385Z,12.43
2022-12-22T18:23:51.089Z,12.45
2022-12-22T18:26:24.545Z,12.15
2022-12-22T18:28:54.909Z,16.90
2022-12-22T18:31:23.917Z,11.65
2022-12-22T18:33:51.963Z,10.27
2022-12-22T18:36:24.017Z,9.43
2022-12-22T18:38:51.941Z,12.63
2022-12-22T18:41:23.223Z,8.95
2022-12-22T18:43:51.062Z,18.30
2022-12-22T18:46:20.693Z,19.40
2022-12-22T18:48:48.789Z,13.43
2022-12-22T18:51:20.469Z,16.48
2022-12-22T18:53:51.517Z,17.17
2022-12-22T18:56:19.754Z,12.98
2022-12-22T18:58:47.883Z,22.13
2022-12-22T19:01:21.940Z,13.38
2022-12-22T19:03:50.297Z,12.93
2022-12-22T19:06:21.715Z,11.55
2022-12-22T19:08:50.272Z,11.02
2022-12-22T19:11:22.326Z,9.55
2022-12-22T19:13:52.470Z,5.82
2022-12-22T19:16:26.191Z,7.63
2022-12-22T19:18:54.141Z,12.20
2022-12-22T19:21:22.336Z,8.00
2022-12-22T19:23:50.312Z,7.15
2022-12-22T19:26:23.335Z,9.60
2022-12-22T19:28:55.020Z,6.65
2022-12-22T19:31:26.821Z,13.70
2022-12-22T19:33:56.400Z,44.45
2022-12-22T19:36:26.714Z,33.45
2022-12-22T19:39:02.705Z,12.93
2022-12-22T19:41:39.756Z,8.43
2022-12-22T19:44:21.796Z,9.57
2022-12-22T19:46:52.242Z,9.10
2022-12-22T19:49:22.572Z,8.05
2022-12-22T19:51:50.777Z,12.98
2022-12-22T19:54:19.306Z,6.32
2022-12-22T19:56:49.554Z,11.38
2022-12-22T19:59:27.327Z,8.88
2022-12-22T20:01:59.007Z,11.45
2022-12-22T20:04:27.000Z,6.70
2022-12-22T20:06:54.853Z,9.80
2022-12-22T20:09:22.627Z,10.90
2022-12-22T20:11:50.412Z,12.77
2022-12-22T20:14:18.692Z,13.63
2022-12-22T20:16:46.819Z,11.20
2022-12-22T20:19:17.674Z,11.88
2022-12-22T20:21:45.665Z,9.27
2022-12-22T20:24:22.087Z,12.55
2022-12-22T20:26:54.226Z,11.55
2022-12-22T20:29:24.199Z,14.95
2022-12-22T20:31:52.093Z,15.23
2022-12-22T20:34:21.308Z,16.83
2022-12-22T20:36:49.126Z,12.77
2022-12-22T20:39:18.763Z,11.65
2022-12-22T20:41:52.673Z,14.23
2022-12-22T20:44:20.982Z,13.38
2022-12-22T20:46:48.740Z,12.20
2022-12-22T20:49:17.233Z,13.30
2022-12-22T20:51:46.395Z,14.20
2022-12-22T20:54:14.782Z,13.52
2022-12-22T20:56:43.890Z,16.33
2022-12-22T20:59:15.874Z,14.25
2022-12-22T21:01:44.563Z,18.63
2022-12-22T21:04:14.113Z,16.88
2022-12-22T21:06:47.527Z,14.63
2022-12-22T21:09:16.091Z,14.60
2022-12-22T21:11:44.230Z,12.55
2022-12-22T21:14:12.611Z,14.20
2022-12-22T21:16:41.408Z,13.70
2022-12-22T21:19:09.591Z,13.50
2022-12-22T21:21:37.330Z,18.45
2022-12-22T21:24:07.299Z,12.57
2022-12-22T21:26:38.191Z,21.80
2022-12-22T21:29:08.934Z,13.15
2022-12-22T21:31:36.688Z,21.83
2022-12-22T21:34:04.775Z,17.80
2022-12-22T21:36:34.773Z,19.17
2022-12-22T21:39:05.940Z,17.10
2022-12-22T21:41:52.809Z,18.05
2022-12-22T21:44:20.886Z,18.85
2022-12-22T21:46:49.000Z,13.73
2022-12-22T21:49:22.013Z,17.65
2022-12-22T21:51:51.528Z,17.90
2022-12-22T21:54:22.475Z,19.92
2022-12-22T21:56:52.340Z,13.98
2022-12-22T21:59:20.581Z,15.25
2022-12-22T22:01:48.767Z,14.20
2022-12-22T22:04:16.690Z,17.30
2022-12-22T22:06:44.522Z,18.17
2022-12-22T22:09:13.364Z,14.55
2022-12-22T22:11:55.750Z,14.55
2022-12-22T22:14:27.890Z,15.90
2022-12-22T22:16:55.858Z,15.60
2022-12-22T22:19:23.585Z,18.55
2022-12-22T22:21:51.659Z,15.40
2022-12-22T22:24:20.015Z,19.20
2022-12-22T22:26:50.477Z,16.30
2022-12-22T22:29:18.286Z,17.10
2022-12-22T22:31:47.636Z,17.73
2022-12-22T22:34:17.435Z,17.10
2022-12-22T22:36:45.496Z,18.45
2022-12-22T22:39:13.195Z,19.17
2022-12-22T22:41:43.612Z,17.10
2022-12-22T22:44:12.056Z,13.75
2022-12-22T22:46:40.586Z,17.20
2022-12-22T22:49:10.084Z,18.55
2022-12-22T22:51:37.938Z,23.35
2022-12-22T22:54:05.918Z,18.40
2022-12-22T22:56:33.684Z,17.10
2022-12-22T22:59:01.547Z,18.85
2022-12-22T23:01:29.671Z,21.70
2022-12-22T23:03:57.583Z,19.55
2022-12-22T23:06:27.263Z,17.45
2022-12-22T23:08:55.185Z,18.33
2022-12-22T23:11:22.972Z,15.50
2022-12-22T23:13:50.787Z,20.60
2022-12-22T23:16:21.260Z,16.48
2022-12-22T23:18:49.271Z,16.35
2022-12-22T23:21:16.987Z,21.80
2022-12-22T23:23:46.164Z,24.75
2022-12-22T23:26:13.913Z,35.05
2022-12-22T23:28:41.631Z,38.70
2022-12-22T23:31:12.481Z,84.90
2022-12-22T23:33:40.503Z,77.38
2022-12-22T23:36:09.208Z,45.42
2022-12-22T23:38:37.146Z,32.97
2022-12-22T23:41:08.145Z,18.50
2022-12-22T23:43:36.258Z,16.48
2022-12-22T23:46:07.281Z,21.27
2022-12-22T23:48:35.407Z,20.50
2022-12-22T23:51:03.301Z,18.83
2022-12-22T23:53:31.525Z,19.83
2022-12-22T23:55:59.359Z,20.05
2022-12-22T23:58:28.716Z,23.58
